sensor_id;sensor_type;location;lat;lon;timestamp;pressure;altitude;pressure_sealevel;temperature;humidity
15193;BME280;7697;51.630;7.484;2023-01-09T00:03:35;98687.91;;;10.00;96.24
15193;BME280;7697;51.630;7.484;2023-01-09T00:08:36;98693.44;;;9.98;96.76
15193;BME280;7697;51.630;7.484;2023-01-09T00:13:38;98696.56;;;9.95;97.78
15193;BME280;7697;51.630;7.484;2023-01-09T00:18:41;98699.84;;;9.86;97.99
15193;BME280;7697;51.630;7.484;2023-01-09T00:23:43;98695.31;;;9.81;98.28
15193;BME280;7697;51.630;7.484;2023-01-09T00:28:46;98690.19;;;9.74;99.17
15193;BME280;7697;51.630;7.484;2023-01-09T00:33:53;98686.97;;;9.72;99.43
15193;BME280;7697;51.630;7.484;2023-01-09T00:38:56;98692.16;;;9.67;99.40
15193;BME280;7697;51.630;7.484;2023-01-09T00:44:01;98692.56;;;9.59;99.48
15193;BME280;7697;51.630;7.484;2023-01-09T00:49:07;98694.31;;;9.54;99.03
15193;BME280;7697;51.630;7.484;2023-01-09T00:54:10;98697.13;;;9.47;99.37
15193;BME280;7697;51.630;7.484;2023-01-09T00:59:13;98705.44;;;9.39;99.09
15193;BME280;7697;51.630;7.484;2023-01-09T01:04:16;98701.66;;;9.35;98.92
15193;BME280;7697;51.630;7.484;2023-01-09T01:09:35;98715.50;;;9.25;99.18
15193;BME280;7697;51.630;7.484;2023-01-09T01:14:37;98708.19;;;9.16;99.37
15193;BME280;7697;51.630;7.484;2023-01-09T01:19:40;98706.94;;;9.07;99.54
15193;BME280;7697;51.630;7.484;2023-01-09T01:24:42;98715.81;;;9.00;99.65
15193;BME280;7697;51.630;7.484;2023-01-09T01:29:44;98711.50;;;8.94;100.00
15193;BME280;7697;51.630;7.484;2023-01-09T01:34:47;98709.41;;;8.96;100.00
15193;BME280;7697;51.630;7.484;2023-01-09T01:39:48;98699.22;;;8.88;100.00
15193;BME280;7697;51.630;7.484;2023-01-09T01:44:56;98707.13;;;8.88;100.00
15193;BME280;7697;51.630;7.484;2023-01-09T01:50:03;98704.19;;;8.85;100.00
15193;BME280;7697;51.630;7.484;2023-01-09T01:55:07;98706.81;;;8.85;100.00
15193;BME280;7697;51.630;7.484;2023-01-09T02:00:11;98705.66;;;8.81;100.00
15193;BME280;7697;51.630;7.484;2023-01-09T02:05:14;98714.97;;;8.83;100.00
15193;BME280;7697;51.630;7.484;2023-01-09T02:10:16;98739.97;;;8.92;100.00
15193;BME280;7697;51.630;7.484;2023-01-09T02:15:18;98733.53;;;8.88;100.00
15193;BME280;7697;51.630;7.484;2023-01-09T02:20:45;98729.84;;;8.89;100.00
15193;BME280;7697;51.630;7.484;2023-01-09T02:26:09;98728.72;;;8.85;100.00
15193;BME280;7697;51.630;7.484;2023-01-09T02:31:21;98741.44;;;8.88;100.00
15193;BME280;7697;51.630;7.484;2023-01-09T02:36:31;98748.78;;;8.86;100.00
15193;BME280;7697;51.630;7.484;2023-01-09T02:41:38;98745.03;;;8.82;100.00
15193;BME280;7697;51.630;7.484;2023-01-09T02:46:44;98743.41;;;8.81;100.00
15193;BME280;7697;51.630;7.484;2023-01-09T02:51:50;98747.44;;;8.72;100.00
15193;BME280;7697;51.630;7.484;2023-01-09T02:57:08;98747.91;;;8.69;100.00
15193;BME280;7697;51.630;7.484;2023-01-09T03:02:23;98746.88;;;8.70;100.00
15193;BME280;7697;51.630;7.484;2023-01-09T03:07:33;98742.09;;;8.67;100.00
15193;BME280;7697;51.630;7.484;2023-01-09T03:12:37;98750.22;;;8.65;100.00
15193;BME280;7697;51.630;7.484;2023-01-09T03:17:44;98749.28;;;8.60;100.00
15193;BME280;7697;51.630;7.484;2023-01-09T03:22:53;98752.88;;;8.54;100.00
15193;BME280;7697;51.630;7.484;2023-01-09T03:27:56;98761.50;;;8.49;100.00
15193;BME280;7697;51.630;7.484;2023-01-09T03:32:59;98775.13;;;8.46;100.00
15193;BME280;7697;51.630;7.484;2023-01-09T03:38:01;98787.41;;;8.41;100.00
15193;BME280;7697;51.630;7.484;2023-01-09T03:43:03;98806.44;;;8.43;100.00
15193;BME280;7697;51.630;7.484;2023-01-09T03:48:06;98804.81;;;8.42;100.00
15193;BME280;7697;51.630;7.484;2023-01-09T03:53:08;98815.50;;;8.47;100.00
15193;BME280;7697;51.630;7.484;2023-01-09T03:58:09;98834.78;;;8.47;100.00
15193;BME280;7697;51.630;7.484;2023-01-09T04:03:12;98822.38;;;8.48;100.00
15193;BME280;7697;51.630;7.484;2023-01-09T04:08:15;98824.00;;;8.49;100.00
15193;BME280;7697;51.630;7.484;2023-01-09T04:13:17;98838.78;;;8.50;100.00
15193;BME280;7697;51.630;7.484;2023-01-09T04:18:20;98834.78;;;8.47;100.00
15193;BME280;7697;51.630;7.484;2023-01-09T04:23:22;98839.56;;;8.50;100.00
15193;BME280;7697;51.630;7.484;2023-01-09T04:28:24;98836.59;;;8.47;100.00
15193;BME280;7697;51.630;7.484;2023-01-09T04:33:27;98842.47;;;8.49;100.00
15193;BME280;7697;51.630;7.484;2023-01-09T04:38:29;98852.44;;;8.47;100.00
15193;BME280;7697;51.630;7.484;2023-01-09T04:43:30;98860.13;;;8.48;100.00
15193;BME280;7697;51.630;7.484;2023-01-09T04:48:33;98858.03;;;8.50;100.00
15193;BME280;7697;51.630;7.484;2023-01-09T04:53:35;98874.44;;;8.52;100.00
15193;BME280;7697;51.630;7.484;2023-01-09T04:58:37;98855.66;;;8.49;99.72
15193;BME280;7697;51.630;7.484;2023-01-09T05:03:40;98870.31;;;8.45;99.73
15193;BME280;7697;51.630;7.484;2023-01-09T05:08:41;98867.09;;;8.43;99.68
15193;BME280;7697;51.630;7.484;2023-01-09T05:13:43;98890.38;;;8.34;98.98
15193;BME280;7697;51.630;7.484;2023-01-09T05:18:46;98892.28;;;8.27;99.37
15193;BME280;7697;51.630;7.484;2023-01-09T05:23:48;98905.34;;;8.22;99.19
15193;BME280;7697;51.630;7.484;2023-01-09T05:28:50;98904.84;;;8.13;98.50
15193;BME280;7697;51.630;7.484;2023-01-09T05:33:53;98908.38;;;8.07;98.52
15193;BME280;7697;51.630;7.484;2023-01-09T05:38:55;98910.66;;;8.04;99.21
15193;BME280;7697;51.630;7.484;2023-01-09T05:43:57;98910.19;;;7.95;98.62
15193;BME280;7697;51.630;7.484;2023-01-09T05:49:00;98907.06;;;7.98;98.51
15193;BME280;7697;51.630;7.484;2023-01-09T05:54:02;98902.13;;;7.90;98.89
15193;BME280;7697;51.630;7.484;2023-01-09T05:59:05;98911.84;;;7.89;98.62
15193;BME280;7697;51.630;7.484;2023-01-09T06:04:08;98912.44;;;7.91;98.73
15193;BME280;7697;51.630;7.484;2023-01-09T06:09:09;98912.22;;;7.93;98.40
15193;BME280;7697;51.630;7.484;2023-01-09T06:14:11;98907.38;;;7.90;98.23
15193;BME280;7697;51.630;7.484;2023-01-09T06:19:14;98906.53;;;7.96;98.36
15193;BME280;7697;51.630;7.484;2023-01-09T06:24:16;98905.47;;;7.97;98.24
15193;BME280;7697;51.630;7.484;2023-01-09T06:29:18;98920.41;;;8.03;97.99
15193;BME280;7697;51.630;7.484;2023-01-09T06:34:21;98914.44;;;8.08;97.64
15193;BME280;7697;51.630;7.484;2023-01-09T06:39:23;98917.88;;;8.08;96.97
15193;BME280;7697;51.630;7.484;2023-01-09T06:44:25;98918.69;;;8.09;97.56
15193;BME280;7697;51.630;7.484;2023-01-09T06:49:28;98912.63;;;8.08;95.90
15193;BME280;7697;51.630;7.484;2023-01-09T06:54:29;98919.06;;;8.12;96.34
15193;BME280;7697;51.630;7.484;2023-01-09T06:59:31;98918.25;;;8.12;96.30
15193;BME280;7697;51.630;7.484;2023-01-09T07:04:34;98931.66;;;8.10;97.14
15193;BME280;7697;51.630;7.484;2023-01-09T07:09:36;98926.25;;;8.05;96.84
15193;BME280;7697;51.630;7.484;2023-01-09T07:14:38;98921.28;;;7.97;97.89
15193;BME280;7697;51.630;7.484;2023-01-09T07:19:41;98924.16;;;7.96;98.04
15193;BME280;7697;51.630;7.484;2023-01-09T07:24:43;98918.53;;;7.92;98.06
15193;BME280;7697;51.630;7.484;2023-01-09T07:29:44;98917.72;;;7.91;98.32
15193;BME280;7697;51.630;7.484;2023-01-09T07:34:47;98927.88;;;7.88;98.52
15193;BME280;7697;51.630;7.484;2023-01-09T07:39:50;98933.91;;;7.95;99.33
15193;BME280;7697;51.630;7.484;2023-01-09T07:44:52;98935.13;;;7.93;98.77
15193;BME280;7697;51.630;7.484;2023-01-09T07:49:55;98935.94;;;7.93;99.00
15193;BME280;7697;51.630;7.484;2023-01-09T07:54:57;98936.28;;;7.97;98.74
15193;BME280;7697;51.630;7.484;2023-01-09T07:59:58;98937.91;;;7.98;98.46
15193;BME280;7697;51.630;7.484;2023-01-09T08:05:04;98936.66;;;8.00;98.35
15193;BME280;7697;51.630;7.484;2023-01-09T08:10:09;98944.78;;;7.99;97.52
15193;BME280;7697;51.630;7.484;2023-01-09T08:15:11;98933.00;;;8.01;97.78
15193;BME280;7697;51.630;7.484;2023-01-09T08:20:15;98952.03;;;8.03;98.09
15193;BME280;7697;51.630;7.484;2023-01-09T08:25:17;98948.81;;;8.01;98.45
15193;BME280;7697;51.630;7.484;2023-01-09T08:30:19;98947.91;;;8.07;98.74
15193;BME280;7697;51.630;7.484;2023-01-09T08:35:22;98960.78;;;8.15;97.63
15193;BME280;7697;51.630;7.484;2023-01-09T08:40:24;98953.03;;;8.20;97.48
15193;BME280;7697;51.630;7.484;2023-01-09T08:45:26;98946.63;;;8.28;98.19
15193;BME280;7697;51.630;7.484;2023-01-09T08:50:46;98942.97;;;8.29;97.93
15193;BME280;7697;51.630;7.484;2023-01-09T08:55:48;98950.44;;;8.32;96.52
15193;BME280;7697;51.630;7.484;2023-01-09T09:00:49;98959.75;;;8.35;97.00
15193;BME280;7697;51.630;7.484;2023-01-09T09:05:52;98960.69;;;8.40;96.83
15193;BME280;7697;51.630;7.484;2023-01-09T09:11:00;98954.03;;;8.38;97.15
15193;BME280;7697;51.630;7.484;2023-01-09T09:16:02;98952.41;;;8.37;97.53
15193;BME280;7697;51.630;7.484;2023-01-09T09:21:05;98959.31;;;8.38;97.35
15193;BME280;7697;51.630;7.484;2023-01-09T09:26:07;98983.16;;;8.43;97.51
15193;BME280;7697;51.630;7.484;2023-01-09T09:31:09;98983.97;;;8.43;98.21
15193;BME280;7697;51.630;7.484;2023-01-09T09:36:12;98982.34;;;8.42;98.00
15193;BME280;7697;51.630;7.484;2023-01-09T09:41:24;98994.28;;;8.45;98.17
15193;BME280;7697;51.630;7.484;2023-01-09T09:46:52;98990.03;;;8.44;98.59
15193;BME280;7697;51.630;7.484;2023-01-09T09:52:05;99009.00;;;8.52;98.46
15193;BME280;7697;51.630;7.484;2023-01-09T09:57:18;99007.03;;;8.48;99.01
15193;BME280;7697;51.630;7.484;2023-01-09T10:02:27;99020.47;;;8.46;100.00
15193;BME280;7697;51.630;7.484;2023-01-09T10:07:41;99030.09;;;8.52;99.80
15193;BME280;7697;51.630;7.484;2023-01-09T10:12:51;99027.25;;;8.54;99.45
15193;BME280;7697;51.630;7.484;2023-01-09T10:18:00;99021.53;;;8.57;100.00
15193;BME280;7697;51.630;7.484;2023-01-09T10:23:19;99015.22;;;8.58;100.00
15193;BME280;7697;51.630;7.484;2023-01-09T10:28:36;99020.41;;;8.64;99.71
15193;BME280;7697;51.630;7.484;2023-01-09T10:33:52;99011.09;;;8.62;99.87
15193;BME280;7697;51.630;7.484;2023-01-09T10:39:02;99010.44;;;8.67;100.00
15193;BME280;7697;51.630;7.484;2023-01-09T10:44:14;99017.53;;;8.66;100.00
15193;BME280;7697;51.630;7.484;2023-01-09T10:49:19;99036.28;;;8.76;100.00
15193;BME280;7697;51.630;7.484;2023-01-09T10:54:23;99028.13;;;8.78;99.97
15193;BME280;7697;51.630;7.484;2023-01-09T10:59:25;99036.50;;;8.86;100.00
15193;BME280;7697;51.630;7.484;2023-01-09T11:04:31;99021.41;;;8.93;100.00
15193;BME280;7697;51.630;7.484;2023-01-09T11:09:57;99028.63;;;8.98;99.93
15193;BME280;7697;51.630;7.484;2023-01-09T11:15:22;99022.19;;;9.06;100.00
15193;BME280;7697;51.630;7.484;2023-01-09T11:20:28;99033.72;;;9.11;99.79
15193;BME280;7697;51.630;7.484;2023-01-09T11:25:32;99024.97;;;9.11;99.42
15193;BME280;7697;51.630;7.484;2023-01-09T11:30:34;99023.47;;;9.15;98.86
15193;BME280;7697;51.630;7.484;2023-01-09T11:35:36;99030.03;;;9.24;96.86
15193;BME280;7697;51.630;7.484;2023-01-09T11:40:47;99041.75;;;9.28;94.74
15193;BME280;7697;51.630;7.484;2023-01-09T11:45:52;99040.72;;;9.29;94.68
15193;BME280;7697;51.630;7.484;2023-01-09T11:50:57;99049.34;;;9.36;93.82
15193;BME280;7697;51.630;7.484;2023-01-09T11:56:01;99047.50;;;9.36;93.95
15193;BME280;7697;51.630;7.484;2023-01-09T12:01:10;99044.97;;;9.41;93.44
15193;BME280;7697;51.630;7.484;2023-01-09T12:06:19;99054.72;;;9.41;93.51
15193;BME280;7697;51.630;7.484;2023-01-09T12:11:28;99069.34;;;9.44;93.62
15193;BME280;7697;51.630;7.484;2023-01-09T12:16:35;99079.00;;;9.38;93.55
15193;BME280;7697;51.630;7.484;2023-01-09T12:21:43;99084.28;;;9.38;93.25
15193;BME280;7697;51.630;7.484;2023-01-09T12:26:58;99077.38;;;9.37;93.21
15193;BME280;7697;51.630;7.484;2023-01-09T12:32:14;99087.47;;;9.40;93.98
15193;BME280;7697;51.630;7.484;2023-01-09T12:42:56;99099.09;;;9.39;93.78
15193;BME280;7697;51.630;7.484;2023-01-09T12:48:08;99101.16;;;9.37;93.49
15193;BME280;7697;51.630;7.484;2023-01-09T12:53:18;99105.63;;;9.36;93.45
15193;BME280;7697;51.630;7.484;2023-01-09T12:58:30;99127.91;;;9.29;94.54
15193;BME280;7697;51.630;7.484;2023-01-09T13:03:37;99127.06;;;9.17;95.39
15193;BME280;7697;51.630;7.484;2023-01-09T13:08:46;99137.63;;;9.17;96.51
15193;BME280;7697;51.630;7.484;2023-01-09T13:13:53;99149.09;;;9.11;97.10
15193;BME280;7697;51.630;7.484;2023-01-09T13:18:59;99159.78;;;9.16;97.39
15193;BME280;7697;51.630;7.484;2023-01-09T13:24:11;99147.00;;;9.13;96.86
15193;BME280;7697;51.630;7.484;2023-01-09T13:29:18;99164.03;;;9.17;96.07
15193;BME280;7697;51.630;7.484;2023-01-09T13:34:24;99176.44;;;9.16;95.66
15193;BME280;7697;51.630;7.484;2023-01-09T13:39:29;99175.84;;;9.14;95.36
15193;BME280;7697;51.630;7.484;2023-01-09T13:44:33;99183.44;;;9.11;95.85
15193;BME280;7697;51.630;7.484;2023-01-09T13:49:58;99197.44;;;9.11;94.89
15193;BME280;7697;51.630;7.484;2023-01-09T14:00:54;99205.00;;;9.08;95.31
15193;BME280;7697;51.630;7.484;2023-01-09T14:06:14;99219.22;;;9.07;95.16
15193;BME280;7697;51.630;7.484;2023-01-09T14:11:23;99223.47;;;9.08;95.03
15193;BME280;7697;51.630;7.484;2023-01-09T14:16:30;99245.41;;;9.08;94.37
15193;BME280;7697;51.630;7.484;2023-01-09T14:21:44;99248.50;;;9.05;94.63
15193;BME280;7697;51.630;7.484;2023-01-09T14:26:48;99275.69;;;9.06;95.24
15193;BME280;7697;51.630;7.484;2023-01-09T14:37:37;99288.34;;;9.03;94.97
15193;BME280;7697;51.630;7.484;2023-01-09T14:42:39;99305.22;;;9.02;95.43
15193;BME280;7697;51.630;7.484;2023-01-09T14:47:44;99318.63;;;9.01;95.55
15193;BME280;7697;51.630;7.484;2023-01-09T14:52:50;99315.78;;;9.02;95.50
15193;BME280;7697;51.630;7.484;2023-01-09T14:57:53;99327.78;;;8.98;95.24
15193;BME280;7697;51.630;7.484;2023-01-09T15:02:56;99352.34;;;8.99;95.24
15193;BME280;7697;51.630;7.484;2023-01-09T15:08:01;99364.97;;;8.97;95.62
15193;BME280;7697;51.630;7.484;2023-01-09T15:13:06;99382.13;;;8.88;96.30
15193;BME280;7697;51.630;7.484;2023-01-09T15:18:08;99394.97;;;8.84;96.88
15193;BME280;7697;51.630;7.484;2023-01-09T15:23:21;99389.50;;;8.79;97.30
15193;BME280;7697;51.630;7.484;2023-01-09T15:28:26;99399.72;;;8.76;97.60
15193;BME280;7697;51.630;7.484;2023-01-09T15:33:30;99413.72;;;8.76;98.12
15193;BME280;7697;51.630;7.484;2023-01-09T15:38:34;99420.28;;;8.67;99.21
15193;BME280;7697;51.630;7.484;2023-01-09T15:43:39;99429.78;;;8.68;99.68
15193;BME280;7697;51.630;7.484;2023-01-09T15:48:41;99435.59;;;8.58;100.00
15193;BME280;7697;51.630;7.484;2023-01-09T15:53:46;99448.59;;;8.53;100.00
15193;BME280;7697;51.630;7.484;2023-01-09T15:58:50;99449.25;;;8.49;100.00
15193;BME280;7697;51.630;7.484;2023-01-09T16:03:53;99472.19;;;8.48;100.00
15193;BME280;7697;51.630;7.484;2023-01-09T16:08:59;99483.16;;;8.45;100.00
15193;BME280;7697;51.630;7.484;2023-01-09T16:14:11;99482.34;;;8.45;100.00
15193;BME280;7697;51.630;7.484;2023-01-09T16:19:27;99506.94;;;8.39;100.00
15193;BME280;7697;51.630;7.484;2023-01-09T16:24:37;99513.22;;;8.38;100.00
15193;BME280;7697;51.630;7.484;2023-01-09T16:29:44;99520.75;;;8.34;100.00
15193;BME280;7697;51.630;7.484;2023-01-09T16:34:50;99537.00;;;8.31;100.00
15193;BME280;7697;51.630;7.484;2023-01-09T16:45:38;99556.09;;;8.20;100.00
15193;BME280;7697;51.630;7.484;2023-01-09T16:50:41;99555.09;;;8.14;100.00
15193;BME280;7697;51.630;7.484;2023-01-09T16:55:43;99575.81;;;8.11;100.00
15193;BME280;7697;51.630;7.484;2023-01-09T17:00:46;99576.41;;;8.13;100.00
15193;BME280;7697;51.630;7.484;2023-01-09T17:05:50;99568.25;;;8.14;100.00
15193;BME280;7697;51.630;7.484;2023-01-09T17:10:54;99575.38;;;8.20;100.00
15193;BME280;7697;51.630;7.484;2023-01-09T17:15:58;99582.88;;;8.17;100.00
15193;BME280;7697;51.630;7.484;2023-01-09T17:21:00;99596.88;;;8.17;100.00
15193;BME280;7697;51.630;7.484;2023-01-09T17:26:02;99590.78;;;8.17;100.00
15193;BME280;7697;51.630;7.484;2023-01-09T17:31:22;99594.22;;;8.17;100.00
15193;BME280;7697;51.630;7.484;2023-01-09T17:36:26;99601.75;;;8.20;100.00
15193;BME280;7697;51.630;7.484;2023-01-09T17:41:30;99611.28;;;8.21;100.00
15193;BME280;7697;51.630;7.484;2023-01-09T17:46:35;99643.72;;;8.22;100.00
15193;BME280;7697;51.630;7.484;2023-01-09T17:51:37;99653.25;;;8.16;100.00
15193;BME280;7697;51.630;7.484;2023-01-09T17:56:41;99667.25;;;8.17;100.00
15193;BME280;7697;51.630;7.484;2023-01-09T18:01:45;99674.78;;;8.13;100.00
15193;BME280;7697;51.630;7.484;2023-01-09T18:06:47;99677.22;;;8.08;100.00
15193;BME280;7697;51.630;7.484;2023-01-09T18:11:48;99686.75;;;8.09;100.00
15193;BME280;7697;51.630;7.484;2023-01-09T18:16:51;99701.34;;;8.05;100.00
15193;BME280;7697;51.630;7.484;2023-01-09T18:21:53;99705.84;;;8.05;100.00
15193;BME280;7697;51.630;7.484;2023-01-09T18:26:55;99705.22;;;7.96;100.00
15193;BME280;7697;51.630;7.484;2023-01-09T18:31:58;99719.81;;;7.92;100.00
15193;BME280;7697;51.630;7.484;2023-01-09T18:36:59;99727.72;;;7.92;100.00
15193;BME280;7697;51.630;7.484;2023-01-09T18:42:01;99735.63;;;7.92;100.00
15193;BME280;7697;51.630;7.484;2023-01-09T18:47:04;99746.56;;;7.89;100.00
15193;BME280;7697;51.630;7.484;2023-01-09T18:52:06;99753.28;;;7.85;100.00
15193;BME280;7697;51.630;7.484;2023-01-09T18:57:07;99769.72;;;7.87;100.00
15193;BME280;7697;51.630;7.484;2023-01-09T19:02:17;99775.78;;;7.81;100.00
15193;BME280;7697;51.630;7.484;2023-01-09T19:07:19;99783.88;;;7.79;100.00
15193;BME280;7697;51.630;7.484;2023-01-09T19:12:21;99795.84;;;7.75;100.00
15193;BME280;7697;51.630;7.484;2023-01-09T19:17:24;99798.47;;;7.69;100.00
15193;BME280;7697;51.630;7.484;2023-01-09T19:22:26;99809.41;;;7.66;100.00
15193;BME280;7697;51.630;7.484;2023-01-09T19:27:28;99823.41;;;7.66;100.00
15193;BME280;7697;51.630;7.484;2023-01-09T19:32:31;99831.91;;;7.68;100.00
15193;BME280;7697;51.630;7.484;2023-01-09T19:37:33;99838.56;;;7.64;100.00
15193;BME280;7697;51.630;7.484;2023-01-09T19:42:36;99846.09;;;7.67;100.00
15193;BME280;7697;51.630;7.484;2023-01-09T19:47:39;99846.28;;;7.66;100.00
15193;BME280;7697;51.630;7.484;2023-01-09T19:52:41;99858.63;;;7.59;100.00
15193;BME280;7697;51.630;7.484;2023-01-09T19:57:43;99865.72;;;7.51;100.00
15193;BME280;7697;51.630;7.484;2023-01-09T20:02:49;99880.91;;;7.56;100.00
15193;BME280;7697;51.630;7.484;2023-01-09T20:07:52;99876.84;;;7.53;100.00
15193;BME280;7697;51.630;7.484;2023-01-09T20:12:54;99889.25;;;7.60;100.00
15193;BME280;7697;51.630;7.484;2023-01-09T20:17:57;99891.47;;;7.63;100.00
15193;BME280;7697;51.630;7.484;2023-01-09T20:23:00;99913.19;;;7.65;100.00
15193;BME280;7697;51.630;7.484;2023-01-09T20:28:02;99921.72;;;7.67;100.00
15193;BME280;7697;51.630;7.484;2023-01-09T20:33:05;99923.72;;;7.65;100.00
15193;BME280;7697;51.630;7.484;2023-01-09T20:38:07;99937.09;;;7.70;100.00
15193;BME280;7697;51.630;7.484;2023-01-09T20:43:10;99945.63;;;7.72;100.00
15193;BME280;7697;51.630;7.484;2023-01-09T20:48:13;99943.41;;;7.69;100.00
15193;BME280;7697;51.630;7.484;2023-01-09T20:53:15;99956.59;;;7.69;100.00
15193;BME280;7697;51.630;7.484;2023-01-09T20:58:17;99970.34;;;7.71;100.00
15193;BME280;7697;51.630;7.484;2023-01-09T21:03:20;99982.16;;;7.75;100.00
15193;BME280;7697;51.630;7.484;2023-01-09T21:08:22;99991.69;;;7.76;100.00
15193;BME280;7697;51.630;7.484;2023-01-09T21:13:24;99998.78;;;7.75;100.00
15193;BME280;7697;51.630;7.484;2023-01-09T21:18:27;100014.22;;;7.78;100.00
15193;BME280;7697;51.630;7.484;2023-01-09T21:23:29;100022.91;;;7.79;100.00
15193;BME280;7697;51.630;7.484;2023-01-09T21:28:31;100036.31;;;7.77;100.00
15193;BME280;7697;51.630;7.484;2023-01-09T21:33:39;100032.66;;;7.78;100.00
15193;BME280;7697;51.630;7.484;2023-01-09T21:38:41;100064.06;;;7.80;100.00
15193;BME280;7697;51.630;7.484;2023-01-09T21:43:44;100070.34;;;7.79;100.00
15193;BME280;7697;51.630;7.484;2023-01-09T21:49:05;100080.88;;;7.79;100.00
15193;BME280;7697;51.630;7.484;2023-01-09T21:54:07;100091.84;;;7.76;100.00
15193;BME280;7697;51.630;7.484;2023-01-09T21:59:09;100109.47;;;7.75;100.00
15193;BME280;7697;51.630;7.484;2023-01-09T22:04:13;100099.31;;;7.72;100.00
15193;BME280;7697;51.630;7.484;2023-01-09T22:09:15;100110.25;;;7.69;100.00
15193;BME280;7697;51.630;7.484;2023-01-09T22:14:18;100125.25;;;7.69;100.00
15193;BME280;7697;51.630;7.484;2023-01-09T22:19:21;100124.03;;;7.71;100.00
15193;BME280;7697;51.630;7.484;2023-01-09T22:24:23;100145.94;;;7.72;100.00
15193;BME280;7697;51.630;7.484;2023-01-09T22:29:24;100163.16;;;7.68;100.00
15193;BME280;7697;51.630;7.484;2023-01-09T22:34:28;100175.56;;;7.74;100.00
15193;BME280;7697;51.630;7.484;2023-01-09T22:39:30;100182.81;;;7.72;100.00
15193;BME280;7697;51.630;7.484;2023-01-09T22:44:31;100186.03;;;7.67;100.00
15193;BME280;7697;51.630;7.484;2023-01-09T22:49:34;100207.53;;;7.71;100.00
15193;BME280;7697;51.630;7.484;2023-01-09T22:54:36;100210.81;;;7.73;100.00
15193;BME280;7697;51.630;7.484;2023-01-09T22:59:38;100220.13;;;7.69;100.00
15193;BME280;7697;51.630;7.484;2023-01-09T23:04:41;100220.31;;;7.67;100.00
15193;BME280;7697;51.630;7.484;2023-01-09T23:09:43;100229.75;;;7.62;100.00
15193;BME280;7697;51.630;7.484;2023-01-09T23:14:45;100245.16;;;7.58;100.00
15193;BME280;7697;51.630;7.484;2023-01-09T23:19:48;100260.16;;;7.58;100.00
15193;BME280;7697;51.630;7.484;2023-01-09T23:24:49;100271.91;;;7.62;100.00
15193;BME280;7697;51.630;7.484;2023-01-09T23:29:51;100279.94;;;7.53;100.00
15193;BME280;7697;51.630;7.484;2023-01-09T23:34:54;100304.66;;;7.52;100.00
15193;BME280;7697;51.630;7.484;2023-01-09T23:39:56;100312.97;;;7.49;100.00
15193;BME280;7697;51.630;7.484;2023-01-09T23:44:57;100319.22;;;7.48;100.00
15193;BME280;7697;51.630;7.484;2023-01-09T23:50:00;100322.84;;;7.47;100.00
15193;BME280;7697;51.630;7.484;2023-01-09T23:55:03;100345.56;;;7.48;100.00
